Time;durP1;ratioP1;P1;durP2;ratioP2;P2;SDS_P1;SDS_P2;PMS_P1;PMS_P2;Temp;Humidity;BMP_temperature;BMP_pressure;BME280_temperature;BME280_humidity;BME280_pressure;Samples;Min_cycle;Max_cycle;Signal;HPM_P1;HPM_P2
2021/12/27 00:00:18;;;;;;;39.45;17.75;;;;;;;2.61;97.18;100135.81;4972145;28;20027;-76
2021/12/27 00:02:43;;;;;;;;;;;;;;;2.64;96.53;100124.03;4984296;28;20033;-74
2021/12/27 00:05:09;;;;;;;35.42;16.27;;;;;;;2.63;97.14;100133.91;4988911;28;19910;-73
2021/12/27 00:07:34;;;;;;;36.95;17.02;;;;;;;2.63;97.11;100120.50;4989695;28;20018;-75
2021/12/27 00:10:00;;;;;;;34.78;16.10;;;;;;;2.63;97.05;100133.91;4984663;28;20066;-73
2021/12/27 00:12:27;;;;;;;38.78;17.63;;;;;;;2.63;97.22;100133.06;4990789;28;20085;-75
2021/12/27 00:14:52;;;;;;;35.60;16.75;;;;;;;2.63;97.36;100125.00;4982756;28;20525;-75
2021/12/27 00:17:17;;;;;;;38.10;18.48;;;;;;;2.60;97.16;100117.09;4983305;28;20026;-76
2021/12/27 00:19:42;;;;;;;33.38;15.95;;;;;;;2.64;97.37;100124.91;4987863;28;20109;-76
2021/12/27 00:22:08;;;;;;;36.17;16.88;;;;;;;2.64;97.13;100127.59;4990163;28;20474;-75
2021/12/27 00:24:33;;;;;;;39.42;17.70;;;;;;;2.66;97.28;100120.34;4986542;28;20026;-76
2021/12/27 00:26:58;;;;;;;32.90;14.93;;;;;;;2.68;96.94;100122.94;4989915;28;20077;-75
2021/12/27 00:29:23;;;;;;;37.75;16.98;;;;;;;2.69;97.12;100124.66;4984976;28;20030;-75
2021/12/27 00:31:49;;;;;;;29.55;15.57;;;;;;;2.63;97.10;100106.19;4982274;28;20041;-73
2021/12/27 00:34:15;;;;;;;36.55;17.25;;;;;;;2.70;97.32;100112.97;4985551;28;20084;-74
2021/12/27 00:36:40;;;;;;;34.67;16.02;;;;;;;2.70;97.31;100113.84;4988377;28;20084;-75
2021/12/27 00:39:05;;;;;;;32.17;15.90;;;;;;;2.72;97.48;100105.72;4987660;28;20134;-74
2021/12/27 00:41:31;;;;;;;33.70;16.48;;;;;;;2.72;97.24;100111.97;4975856;28;20022;-75
2021/12/27 00:43:56;;;;;;;30.75;15.32;;;;;;;2.72;97.38;100100.34;4988543;28;20425;-76
2021/12/27 00:46:21;;;;;;;31.63;15.23;;;;;;;2.73;97.06;100097.56;4989133;28;20304;-76
2021/12/27 00:48:47;;;;;;;30.42;15.43;;;;;;;2.75;97.29;100092.13;4978971;28;20123;-75
2021/12/27 00:51:12;;;;;;;30.58;16.20;;;;;;;2.75;97.38;100082.28;4988503;28;20470;-74
2021/12/27 00:53:37;;;;;;;33.83;16.00;;;;;;;2.76;97.26;100075.94;4989399;28;20034;-74
2021/12/27 00:56:03;;;;;;;37.05;16.73;;;;;;;2.75;97.58;100068.84;4986697;28;20506;-76
2021/12/27 00:58:28;;;;;;;32.20;15.75;;;;;;;2.77;97.53;100076.81;4986055;28;20014;-75
2021/12/27 01:00:53;;;;;;;34.53;16.60;;;;;;;2.78;97.53;100070.47;4986084;28;20030;-74
2021/12/27 01:03:20;;;;;;;33.30;16.58;;;;;;;2.77;97.41;100074.13;4983148;28;20076;-76
2021/12/27 01:05:46;;;;;;;36.05;16.50;;;;;;;2.77;97.74;100066.06;4986626;28;20100;-76
2021/12/27 01:08:11;;;;;;;31.92;16.45;;;;;;;2.79;97.79;100066.84;4985940;28;20954;-74
2021/12/27 01:16:03;;;;;;;37.25;17.77;;;;;;;2.82;97.57;100069.38;4985009;28;20030;-75
2021/12/27 01:18:28;;;;;;;36.90;17.15;;;;;;;2.82;97.42;100074.75;4979861;28;20034;-74
2021/12/27 01:20:54;;;;;;;34.85;16.88;;;;;;;2.85;97.36;100076.41;4987381;28;20495;-75
2021/12/27 01:23:19;;;;;;;30.00;15.38;;;;;;;2.85;97.35;100071.03;4987988;28;20024;-74
2021/12/27 01:25:45;;;;;;;28.77;15.20;;;;;;;2.86;97.39;100076.31;4980150;28;20035;-74
2021/12/27 01:28:10;;;;;;;31.67;15.38;;;;;;;2.84;97.34;100078.19;4989221;28;20390;-75
2021/12/27 01:30:45;;;;;;;32.75;16.05;;;;;;;2.86;97.52;100070.94;4986748;28;20514;-75
2021/12/27 01:33:10;;;;;;;30.83;16.13;;;;;;;2.89;97.41;100069.91;4980573;28;20113;-75
2021/12/27 01:35:36;;;;;;;31.98;15.63;;;;;;;2.86;97.73;100068.25;4981982;28;20165;-76
2021/12/27 01:38:03;;;;;;;32.38;16.00;;;;;;;2.89;97.58;100068.13;4986245;28;20022;-75
2021/12/27 01:40:28;;;;;;;35.13;16.30;;;;;;;2.90;97.58;100071.66;4984804;28;20034;-74
2021/12/27 01:43:07;;;;;;;33.03;16.17;;;;;;;2.91;97.74;100063.50;4985490;28;20084;-74
2021/12/27 01:45:44;;;;;;;30.05;16.45;;;;;;;2.92;97.37;100059.88;4976665;28;20026;-76
2021/12/27 01:48:10;;;;;;;34.95;17.40;;;;;;;2.91;97.31;100058.13;4974351;28;20105;-75
2021/12/27 01:50:38;;;;;;;35.05;16.92;;;;;;;2.94;97.68;100065.19;4988267;28;20030;-75
2021/12/27 01:53:04;;;;;;;32.58;15.45;;;;;;;2.95;97.84;100064.22;4987829;28;20089;-75
2021/12/27 01:55:30;;;;;;;32.17;16.15;;;;;;;2.95;97.50;100056.16;4988175;28;20019;-74
2021/12/27 01:57:55;;;;;;;36.42;17.23;;;;;;;2.96;97.56;100057.91;4982735;28;20085;-74
2021/12/27 02:00:20;;;;;;;33.03;17.13;;;;;;;2.98;97.65;100050.59;4982397;28;20029;-74
2021/12/27 02:02:46;;;;;;;37.17;17.65;;;;;;;2.98;97.64;100051.47;4979416;28;20109;-76
2021/12/27 02:05:13;;;;;;;31.52;16.13;;;;;;;2.99;97.68;100045.16;4987554;28;20022;-74
2021/12/27 02:07:39;;;;;;;42.35;18.05;;;;;;;3.01;97.64;100053.13;4983969;28;20037;-73
2021/12/27 02:10:05;;;;;;;35.20;16.75;;;;;;;3.02;97.65;100053.03;4980847;28;20498;-75
2021/12/27 02:12:31;;;;;;;35.20;17.75;;;;;;;3.04;97.67;100047.59;4987504;28;20085;-76
2021/12/27 02:14:57;;;;;;;33.67;16.05;;;;;;;3.02;97.63;100042.28;4987392;28;20439;-75
2021/12/27 02:17:24;;;;;;;39.35;17.98;;;;;;;3.03;97.57;100040.47;4987437;28;20033;-76
2021/12/27 02:19:51;;;;;;;36.55;17.50;;;;;;;3.06;97.66;100043.00;4978734;28;20030;-74
2021/12/27 02:22:16;;;;;;;34.70;16.92;;;;;;;3.05;97.56;100050.19;4987179;28;20022;-75
2021/12/27 02:24:42;;;;;;;35.05;16.92;;;;;;;3.05;97.76;100047.50;4986719;28;20065;-74
2021/12/27 02:27:07;;;;;;;31.70;16.35;;;;;;;3.07;97.74;100050.09;4987233;28;20382;-75
2021/12/27 02:29:33;;;;;;;36.03;17.92;;;;;;;3.04;97.51;100034.19;4987497;28;20024;-77
2021/12/27 02:31:58;;;;;;;37.08;18.05;;;;;;;3.06;97.54;100038.50;4977808;28;20438;-75
2021/12/27 02:34:24;;;;;;;34.80;16.50;;;;;;;3.07;97.75;100037.53;4985421;28;20429;-76
2021/12/27 02:36:49;;;;;;;39.20;17.95;;;;;;;3.08;97.65;100035.75;4986403;28;20034;-74
2021/12/27 02:39:15;;;;;;;32.25;16.65;;;;;;;3.09;97.75;100037.47;4987809;28;20037;-75
2021/12/27 02:41:41;;;;;;;35.50;16.58;;;;;;;3.11;97.71;100040.06;4980754;28;20382;-76
2021/12/27 02:44:06;;;;;;;39.10;17.80;;;;;;;3.11;97.73;100045.44;4984542;28;20100;-74
2021/12/27 02:46:32;;;;;;;37.20;16.50;;;;;;;3.12;98.11;100052.53;4988041;28;20089;-74
2021/12/27 02:48:58;;;;;;;37.20;17.20;;;;;;;3.11;97.42;100045.44;4981055;28;20072;-75
2021/12/27 02:51:23;;;;;;;31.30;16.10;;;;;;;3.13;97.67;100040.88;4987928;28;20038;-74
2021/12/27 02:53:50;;;;;;;35.35;17.52;;;;;;;3.15;97.54;100037.13;4986468;28;20617;-76
2021/12/27 02:56:17;;;;;;;33.67;16.13;;;;;;;3.16;97.70;100028.09;4983985;28;20041;-74
2021/12/27 02:58:42;;;;;;;37.40;16.60;;;;;;;3.16;97.97;100020.03;4973425;28;20124;-74
2021/12/27 03:01:10;;;;;;;41.03;17.08;;;;;;;3.17;97.82;100018.22;4980236;28;20053;-74
2021/12/27 03:03:36;;;;;;;33.65;17.38;;;;;;;3.17;97.89;100023.59;4983947;28;20030;-76
2021/12/27 03:06:03;;;;;;;32.88;16.73;;;;;;;3.19;97.58;100030.63;4986270;28;20402;-76
2021/12/27 03:08:29;;;;;;;33.33;16.95;;;;;;;3.22;97.79;100035.00;4987109;28;20053;-74
2021/12/27 03:10:57;;;;;;;31.17;15.90;;;;;;;3.22;97.88;100022.41;4987037;28;20057;-74
2021/12/27 03:13:25;;;;;;;35.15;16.10;;;;;;;3.24;97.80;100019.63;4985294;28;20026;-76
2021/12/27 03:15:53;;;;;;;37.28;16.98;;;;;;;3.25;97.83;100014.16;4976564;28;20030;-75
2021/12/27 03:18:19;;;;;;;38.70;18.05;;;;;;;3.24;98.12;100012.44;4979523;28;20058;-75
2021/12/27 03:20:45;;;;;;;38.20;16.65;;;;;;;3.26;97.86;100017.72;4986586;28;20069;-75
2021/12/27 03:23:11;;;;;;;40.13;16.88;;;;;;;3.27;97.96;100016.78;4986835;28;20101;-76
2021/12/27 03:25:36;;;;;;;36.63;17.23;;;;;;;3.28;97.97;100023.88;4986417;28;20483;-76
2021/12/27 03:28:02;;;;;;;40.88;17.83;;;;;;;3.28;98.02;100015.81;4983267;28;20514;-75
2021/12/27 03:30:27;;;;;;;34.80;17.60;;;;;;;3.28;98.29;100013.13;4985039;28;20500;-75
2021/12/27 03:32:54;;;;;;;37.10;16.10;;;;;;;3.30;97.82;100019.28;4979885;28;20022;-76
2021/12/27 03:35:26;;;;;;;35.22;17.10;;;;;;;3.28;97.81;100011.31;4980414;28;20080;-76
2021/12/27 03:37:55;;;;;;;34.58;16.13;;;;;;;3.30;97.82;100012.06;4985828;28;20030;-74
2021/12/27 03:40:21;;;;;;;36.30;15.88;;;;;;;3.33;97.90;100000.31;4983613;28;20026;-74
2021/12/27 03:42:49;;;;;;;40.63;16.60;;;;;;;3.34;97.91;100007.41;4983268;28;20038;-76
2021/12/27 03:45:21;;;;;;;35.60;16.98;;;;;;;3.35;98.04;100010.97;4986475;28;20061;-74
2021/12/27 03:47:48;;;;;;;35.42;17.70;;;;;;;3.37;97.99;100006.38;4984073;28;20034;-73
2021/12/27 03:50:14;;;;;;;34.90;17.17;;;;;;;3.37;97.55;100003.69;4980159;28;20030;-75
2021/12/27 03:52:39;;;;;;;40.03;16.98;;;;;;;3.39;97.97;99999.94;4986611;28;20041;-76
2021/12/27 03:55:06;;;;;;;34.92;16.70;;;;;;;3.39;97.91;99999.94;4982585;28;20031;-74
2021/12/27 03:57:34;;;;;;;35.90;16.50;;;;;;;3.40;97.62;99987.38;4986622;28;20022;-75
2021/12/27 04:02:43;;;;;;;34.92;15.80;;;;;;;3.42;98.08;99985.47;4982256;28;20073;-76
2021/12/27 04:05:09;;;;;;;36.67;17.67;;;;;;;3.42;97.83;99975.59;4984767;28;20022;-77
2021/12/27 04:07:39;;;;;;;33.80;16.20;;;;;;;3.42;98.11;99975.59;4984053;28;20498;-74
2021/12/27 04:10:09;;;;;;;37.92;15.70;;;;;;;3.43;98.13;99977.31;4983951;28;20049;-74
2021/12/27 04:12:35;;;;;;;33.88;15.60;;;;;;;3.44;98.10;99970.13;4989534;28;20461;-74
2021/12/27 04:15:02;;;;;;;36.60;15.55;;;;;;;3.44;98.14;99976.34;4989876;28;20022;-75
2021/12/27 04:17:28;;;;;;;41.70;17.55;;;;;;;3.49;98.15;99981.47;4985578;28;20058;-75
2021/12/27 04:19:53;;;;;;;35.45;17.02;;;;;;;3.49;97.97;99979.66;4982470;28;20022;-75
2021/12/27 04:22:18;;;;;;;35.55;16.52;;;;;;;3.48;98.19;99969.84;4989814;28;20030;-74
2021/12/27 04:24:44;;;;;;;37.85;15.93;;;;;;;3.50;98.23;99961.72;4983359;28;20023;-75
2021/12/27 04:27:09;;;;;;;31.48;15.73;;;;;;;3.49;97.96;99958.13;4989154;28;20367;-75
2021/12/27 04:29:34;;;;;;;31.90;15.35;;;;;;;3.50;97.90;99959.91;4988403;28;20076;-75
2021/12/27 04:31:59;;;;;;;37.03;15.95;;;;;;;3.51;98.11;99955.38;4989633;28;20391;-74
2021/12/27 04:34:25;;;;;;;30.80;15.00;;;;;;;3.48;98.14;99951.03;4989076;28;20049;-74
2021/12/27 04:36:50;;;;;;;32.75;16.85;;;;;;;3.52;98.18;99952.59;4984943;28;20045;-74
2021/12/27 04:39:15;;;;;;;36.50;16.52;;;;;;;3.55;98.12;99948.88;4986867;28;20390;-75
2021/12/27 04:41:41;;;;;;;36.08;15.55;;;;;;;3.57;98.18;99949.63;4979022;28;20030;-74
2021/12/27 04:44:06;;;;;;;39.05;17.75;;;;;;;3.54;98.21;99930.97;4988152;28;20441;-75
2021/12/27 04:46:32;;;;;;;34.85;16.13;;;;;;;3.57;98.39;99936.19;4987643;28;20104;-75
2021/12/27 04:48:57;;;;;;;35.35;15.85;;;;;;;3.57;98.12;99942.44;4984166;28;20037;-75
2021/12/27 04:51:22;;;;;;;32.75;16.08;;;;;;;3.58;98.17;99952.22;4986611;28;20457;-74
2021/12/27 04:53:49;;;;;;;33.95;16.15;;;;;;;3.58;97.96;99941.47;4986926;28;20022;-75
2021/12/27 04:56:15;;;;;;;36.50;16.48;;;;;;;3.63;98.21;99940.34;4987403;28;20038;-76
2021/12/27 04:58:43;;;;;;;34.45;16.10;;;;;;;3.65;98.37;99950.06;4988059;28;20364;-75
2021/12/27 05:01:09;;;;;;;34.17;16.67;;;;;;;3.66;98.25;99945.53;4984032;28;20030;-75
2021/12/27 05:03:34;;;;;;;35.25;17.42;;;;;;;3.69;97.97;99948.06;4988044;28;20034;-74
2021/12/27 05:05:59;;;;;;;32.60;15.35;;;;;;;3.68;98.24;99936.41;4988249;28;20026;-76
2021/12/27 05:08:24;;;;;;;32.92;15.93;;;;;;;3.69;98.02;99938.16;4984838;28;20418;-74
2021/12/27 05:10:50;;;;;;;32.85;15.35;;;;;;;3.72;98.21;99934.41;4988337;28;20034;-76
2021/12/27 05:13:17;;;;;;;31.65;15.63;;;;;;;3.75;98.20;99945.00;4980704;28;20030;-74
2021/12/27 05:15:43;;;;;;;36.40;16.75;;;;;;;3.74;98.27;99933.38;4988573;28;20045;-76
2021/12/27 05:18:08;;;;;;;37.53;16.20;;;;;;;3.76;98.19;99933.28;4987951;28;20022;-75
2021/12/27 05:20:33;;;;;;;32.95;16.25;;;;;;;3.76;98.17;99933.28;4989031;28;20463;-76
2021/12/27 05:22:59;;;;;;;34.80;17.17;;;;;;;3.78;98.38;99931.38;4988248;28;20022;-76
2021/12/27 05:25:24;;;;;;;32.15;16.42;;;;;;;3.77;98.17;99929.63;4987650;28;20026;-75
2021/12/27 05:27:49;;;;;;;36.63;15.75;;;;;;;3.78;98.13;99926.88;4988059;28;20030;-74
2021/12/27 05:30:15;;;;;;;31.10;16.83;;;;;;;3.81;98.23;99925.81;4988584;28;20030;-74
2021/12/27 05:32:41;;;;;;;33.78;16.30;;;;;;;3.82;98.24;99932.91;4987628;28;20030;-74
2021/12/27 05:35:08;;;;;;;32.47;15.57;;;;;;;3.84;98.21;99928.31;4984601;28;20077;-74
2021/12/27 05:37:33;;;;;;;31.92;16.02;;;;;;;3.86;98.18;99922.84;4985617;28;20026;-74
2021/12/27 05:40:04;;;;;;;32.03;15.75;;;;;;;3.87;98.19;99911.13;4983040;28;20037;-75
2021/12/27 05:42:34;;;;;;;28.55;14.68;;;;;;;3.88;98.24;99911.03;4986671;28;20085;-75
2021/12/27 05:45:00;;;;;;;36.72;15.73;;;;;;;3.92;98.22;99914.44;4985218;28;20462;-75
2021/12/27 05:47:25;;;;;;;29.98;15.82;;;;;;;3.96;98.27;99915.94;4995744;28;20092;-75
2021/12/27 05:49:51;;;;;;;32.85;14.93;;;;;;;3.98;98.35;99917.59;4984942;28;20561;-74
2021/12/27 05:52:16;;;;;;;32.03;15.57;;;;;;;4.01;98.18;99917.44;4988255;28;20033;-75
2021/12/27 05:54:42;;;;;;;31.65;15.15;;;;;;;4.02;98.51;99919.16;4986400;28;20112;-74
2021/12/27 05:57:07;;;;;;;32.90;16.25;;;;;;;4.02;98.24;99923.66;4984726;28;20061;-74
2021/12/27 05:59:32;;;;;;;36.42;15.75;;;;;;;4.08;98.43;99929.53;4986078;28;20034;-75
2021/12/27 06:01:58;;;;;;;28.92;15.38;;;;;;;4.06;98.52;99918.00;4987268;28;20030;-74
2021/12/27 06:04:23;;;;;;;29.88;15.23;;;;;;;4.11;98.16;99924.94;4987666;28;20026;-74
2021/12/27 06:06:48;;;;;;;33.60;16.05;;;;;;;4.12;98.80;99927.53;4984230;28;20474;-74
2021/12/27 06:09:14;;;;;;;30.05;15.25;;;;;;;4.15;98.42;99921.97;4986207;28;20074;-74
2021/12/27 06:11:39;;;;;;;32.00;16.45;;;;;;;4.17;98.13;99919.19;4983358;28;20030;-76
2021/12/27 06:14:04;;;;;;;33.92;14.65;;;;;;;4.16;98.60;99915.63;4983039;28;20088;-74
2021/12/27 06:16:30;;;;;;;33.03;15.82;;;;;;;4.20;98.58;99914.47;4987423;28;20029;-75
2021/12/27 06:18:55;;;;;;;27.73;13.65;;;;;;;4.24;98.45;99912.44;4984600;28;20085;-76
2021/12/27 06:21:20;;;;;;;29.92;16.23;;;;;;;4.25;98.41;99914.19;4987501;28;20022;-74
2021/12/27 06:23:46;;;;;;;39.38;16.85;;;;;;;4.23;98.53;99914.28;4987780;28;20122;-75
2021/12/27 06:26:11;;;;;;;30.05;15.77;;;;;;;4.25;98.54;99916.91;4984154;28;20022;-76
2021/12/27 06:28:38;;;;;;;33.97;15.82;;;;;;;4.28;98.45;99916.69;4983373;28;20210;-75
2021/12/27 06:31:04;;;;;;;31.20;15.13;;;;;;;4.28;98.26;99911.31;4984129;28;20100;-75
2021/12/27 06:33:29;;;;;;;27.17;14.35;;;;;;;4.28;98.31;99903.22;4985260;28;20443;-74
2021/12/27 06:35:55;;;;;;;28.77;14.50;;;;;;;4.31;98.39;99908.44;4986674;28;20026;-74
2021/12/27 06:38:21;;;;;;;31.70;16.30;;;;;;;4.33;98.17;99911.88;4985546;28;20050;-75
2021/12/27 06:40:50;;;;;;;36.13;16.80;;;;;;;4.33;98.55;99911.88;4987616;28;20070;-75
2021/12/27 06:43:16;;;;;;;30.20;14.57;;;;;;;4.33;98.49;99911.88;4984209;28;20034;-76
2021/12/27 06:45:42;;;;;;;33.30;16.25;;;;;;;4.36;98.66;99903.63;4976380;28;20038;-76
2021/12/27 06:48:07;;;;;;;30.92;15.23;;;;;;;4.38;98.19;99904.38;4972969;28;20034;-74
2021/12/27 06:50:32;;;;;;;31.45;14.90;;;;;;;4.40;98.74;99907.88;4981375;28;20037;-75
2021/12/27 06:52:58;;;;;;;31.20;15.05;;;;;;;4.42;98.40;99910.44;4979036;28;20168;-75
2021/12/27 06:55:23;;;;;;;30.98;14.23;;;;;;;4.44;98.64;99905.84;4972153;28;20522;-74
2021/12/27 06:57:49;;;;;;;32.45;15.32;;;;;;;4.44;98.35;99895.94;4975623;28;20030;-75
2021/12/27 07:00:15;;;;;;;28.55;14.35;;;;;;;4.46;98.61;99895.84;4981180;28;20557;-74
2021/12/27 07:02:42;;;;;;;33.75;15.20;;;;;;;4.45;98.41;99894.97;4995978;28;20026;-74
2021/12/27 07:05:07;;;;;;;27.58;14.48;;;;;;;4.44;98.56;99890.56;4981930;28;20029;-74
2021/12/27 07:07:33;;;;;;;30.02;14.98;;;;;;;4.46;98.20;99882.38;4979310;28;20030;-75
2021/12/27 07:09:58;;;;;;;35.90;15.32;;;;;;;4.47;98.54;99878.72;4981045;28;20399;-76
2021/12/27 07:12:23;;;;;;;34.05;15.10;;;;;;;4.47;98.33;99884.94;4970970;28;20023;-73
2021/12/27 07:14:49;;;;;;;28.63;14.02;;;;;;;4.47;98.33;99879.56;4985154;28;20018;-76
2021/12/27 07:17:15;;;;;;;33.30;14.55;;;;;;;4.46;98.26;99871.59;4976174;28;20088;-74
2021/12/27 07:19:41;;;;;;;26.08;14.48;;;;;;;4.47;98.48;99874.19;4986555;28;20084;-76
2021/12/27 07:22:06;;;;;;;30.52;14.82;;;;;;;4.48;98.51;99883.16;4984756;28;20026;-74
2021/12/27 07:24:32;;;;;;;30.77;15.00;;;;;;;4.48;98.16;99878.63;4987302;28;20026;-74
2021/12/27 07:26:57;;;;;;;31.05;15.13;;;;;;;4.47;98.38;99878.72;4983687;28;20478;-76
2021/12/27 07:29:22;;;;;;;29.13;15.13;;;;;;;4.46;98.26;99871.59;4975464;28;20041;-76
2021/12/27 07:31:48;;;;;;;31.50;14.48;;;;;;;4.46;98.54;99863.53;4981345;28;20507;-76
2021/12/27 07:34:14;;;;;;;27.30;13.27;;;;;;;4.45;98.25;99870.72;4978112;28;20040;-74
2021/12/27 07:36:39;;;;;;;32.72;14.65;;;;;;;4.42;98.23;99873.59;4976381;28;20375;-73
2021/12/27 07:39:06;;;;;;;31.95;14.25;;;;;;;4.41;98.27;99865.63;4987146;28;20490;-76
2021/12/27 07:41:32;;;;;;;27.25;13.98;;;;;;;4.39;98.06;99870.28;4974446;28;20030;-74
2021/12/27 07:43:57;;;;;;;27.35;14.45;;;;;;;4.35;98.29;99870.44;4978445;28;20026;-74
2021/12/27 07:46:23;;;;;;;27.05;13.60;;;;;;;4.37;98.00;99881.13;4987838;28;20026;-75
2021/12/27 07:48:49;;;;;;;34.92;15.25;;;;;;;4.37;98.32;99873.03;4989290;28;20114;-76
2021/12/27 07:51:14;;;;;;;35.13;15.27;;;;;;;4.34;98.16;99868.72;4990061;28;20105;-74
2021/12/27 07:53:39;;;;;;;34.90;15.23;;;;;;;4.34;97.92;99889.41;4990229;28;20490;-74
2021/12/27 07:56:08;;;;;;;32.42;15.98;;;;;;;4.33;98.12;99879.56;4989981;28;20026;-74
2021/12/27 07:58:33;;;;;;;25.92;14.27;;;;;;;4.35;98.24;99881.22;4989737;28;20032;-74
2021/12/27 08:00:59;;;;;;;31.85;13.30;;;;;;;4.38;98.37;99887.38;4989895;28;20120;-73
2021/12/27 08:03:24;;;;;;;29.67;12.57;;;;;;;4.41;98.27;99881.78;4988144;28;20445;-74
2021/12/27 08:05:49;;;;;;;28.00;13.90;;;;;;;4.45;98.41;99881.50;4987553;28;20030;-74
2021/12/27 08:08:15;;;;;;;30.00;14.13;;;;;;;4.47;98.47;99882.25;4988529;28;20027;-74
2021/12/27 08:10:40;;;;;;;27.63;13.65;;;;;;;4.47;98.52;99874.19;4989000;28;20430;-74
2021/12/27 08:13:06;;;;;;;28.65;14.32;;;;;;;4.49;98.45;99888.44;4987813;28;20025;-74
2021/12/27 08:15:32;;;;;;;27.15;12.73;;;;;;;4.48;98.04;99893.94;4982788;28;20101;-74
2021/12/27 08:17:57;;;;;;;24.50;11.98;;;;;;;4.49;98.30;99887.56;4989068;28;20564;-76
2021/12/27 08:20:22;;;;;;;28.83;12.20;;;;;;;4.48;98.26;99893.94;4982708;28;20470;-74
2021/12/27 08:22:49;;;;;;;30.83;13.50;;;;;;;4.47;98.32;99890.34;4980774;28;20118;-74
2021/12/27 08:25:15;;;;;;;27.15;13.48;;;;;;;4.51;98.08;99899.09;4982889;28;20088;-74
2021/12/27 08:27:42;;;;;;;30.30;13.65;;;;;;;4.52;98.40;99893.66;4978523;28;20038;-76
2021/12/27 08:30:09;;;;;;;30.30;13.85;;;;;;;4.55;98.35;99897.94;4986121;28;20475;-73
2021/12/27 08:32:37;;;;;;;28.35;13.80;;;;;;;4.57;98.34;99890.66;4987544;28;20026;-74
2021/12/27 08:35:03;;;;;;;26.52;12.80;;;;;;;4.58;98.31;99893.25;4983909;28;20058;-76
2021/12/27 08:37:30;;;;;;;28.05;13.43;;;;;;;4.60;98.28;99896.69;4987498;28;20113;-76
2021/12/27 08:39:56;;;;;;;27.15;13.75;;;;;;;4.62;98.47;99880.47;4980486;28;20034;-74
2021/12/27 08:42:21;;;;;;;21.98;12.43;;;;;;;4.64;98.20;99875.81;4982088;28;20026;-74
2021/12/27 08:44:47;;;;;;;25.50;12.98;;;;;;;4.67;98.16;99877.47;4981537;28;20074;-74
2021/12/27 08:47:13;;;;;;;25.98;13.45;;;;;;;4.68;98.31;99873.81;4983394;28;20125;-76
2021/12/27 08:49:39;;;;;;;26.02;13.30;;;;;;;4.71;98.05;99865.50;4985141;28;20696;-75
2021/12/27 08:52:04;;;;;;;26.67;13.45;;;;;;;4.69;98.05;99859.38;4988607;28;20034;-76
2021/12/27 08:54:30;;;;;;;21.52;11.90;;;;;;;4.67;97.34;99858.63;4989032;28;20058;-75
2021/12/27 08:56:56;;;;;;;21.85;12.13;;;;;;;4.64;97.37;99850.72;4988487;28;20026;-74
2021/12/27 08:59:21;;;;;;;23.88;12.52;;;;;;;4.59;97.45;99849.19;4983889;28;20033;-76
2021/12/27 09:01:46;;;;;;;22.60;11.48;;;;;;;4.58;97.22;99838.50;4982340;28;20030;-74
2021/12/27 09:04:12;;;;;;;25.45;12.30;;;;;;;4.56;97.24;99837.72;4981703;28;20089;-74
2021/12/27 09:06:37;;;;;;;22.88;12.57;;;;;;;4.57;nan;99837.66;4981855;28;20034;-76
2021/12/27 09:09:04;;;;;;;21.38;10.90;;;;;;;4.59;97.60;99833.00;4982973;28;20054;-74
2021/12/27 09:11:30;;;;;;;22.90;11.90;;;;;;;4.64;97.80;99829.16;4989345;28;20030;-75
2021/12/27 09:13:55;;;;;;;28.58;12.60;;;;;;;4.65;97.77;99842.53;4985318;28;20029;-76
2021/12/27 09:16:20;;;;;;;20.70;12.00;;;;;;;4.65;97.66;99839.84;4983240;28;20023;-73
2021/12/27 09:18:46;;;;;;;25.25;12.63;;;;;;;4.66;97.52;99840.69;4973750;28;20395;-74
2021/12/27 09:21:11;;;;;;;26.70;12.02;;;;;;;4.67;97.35;99850.53;4987007;28;20030;-74
2021/12/27 09:23:37;;;;;;;21.63;12.00;;;;;;;4.66;97.33;99854.16;4989147;28;20026;-73
2021/12/27 09:26:03;;;;;;;21.63;11.80;;;;;;;4.67;97.34;99853.22;4985586;28;20026;-74
2021/12/27 09:28:29;;;;;;;19.27;11.52;;;;;;;4.67;97.24;99855.91;4981844;28;20398;-75
2021/12/27 09:30:54;;;;;;;21.33;11.25;;;;;;;4.70;97.45;99851.19;4989092;28;20018;-76
2021/12/27 09:33:20;;;;;;;22.38;11.48;;;;;;;4.77;97.43;99857.91;4980659;28;20033;-75
2021/12/27 09:35:45;;;;;;;22.92;12.30;;;;;;;4.86;97.69;99854.63;4987516;28;20033;-74
2021/12/27 09:38:11;;;;;;;24.98;11.80;;;;;;;4.95;97.45;99846.91;4987865;28;20026;-75
2021/12/27 09:40:37;;;;;;;21.75;11.55;;;;;;;4.98;97.47;99836.78;4980033;28;20033;-74
2021/12/27 09:43:02;;;;;;;23.05;12.00;;;;;;;5.04;97.15;99839.09;4984938;28;20027;-74
2021/12/27 09:45:28;;;;;;;24.73;12.35;;;;;;;5.07;97.16;99835.31;4983844;28;20486;-76
2021/12/27 09:47:53;;;;;;;21.05;11.88;;;;;;;5.13;96.72;99837.63;4986008;28;20475;-73
2021/12/27 09:50:30;;;;;;;22.08;11.77;;;;;;;5.20;97.05;99835.38;4989231;28;20026;-76
2021/12/27 09:52:55;;;;;;;19.92;10.73;;;;;;;5.21;96.54;99829.00;4986618;28;20675;-74
2021/12/27 09:55:21;;;;;;;21.08;10.88;;;;;;;5.19;96.16;99837.22;4987624;28;20109;-74
2021/12/27 09:57:46;;;;;;;22.65;10.88;;;;;;;5.18;96.41;99838.19;4986957;28;20109;-76
2021/12/27 10:00:13;;;;;;;19.20;11.10;;;;;;;5.21;96.46;99831.69;4986284;28;20572;-74
2021/12/27 10:02:39;;;;;;;18.13;10.82;;;;;;;5.26;96.22;99832.25;4987879;28;20036;-74
2021/12/27 10:05:06;;;;;;;22.50;11.07;;;;;;;5.28;96.45;99825.81;4981431;28;20515;-75
2021/12/27 10:07:31;;;;;;;17.77;10.88;;;;;;;5.34;96.09;99821.81;4983691;28;20081;-74
2021/12/27 10:09:59;;;;;;;18.42;9.95;;;;;;;5.40;95.76;99812.44;4987060;28;20494;-74
2021/12/27 10:12:28;;;;;;;21.17;10.52;;;;;;;5.43;95.88;99801.47;4986394;28;20022;-73
2021/12/27 10:15:00;;;;;;;18.75;9.52;;;;;;;5.49;95.39;99785.72;4986106;28;20077;-75
2021/12/27 10:17:30;;;;;;;15.93;9.55;;;;;;;5.50;95.66;99779.38;4987156;28;20386;-76
2021/12/27 10:19:56;;;;;;;14.68;8.65;;;;;;;5.48;95.30;99785.84;4987497;28;20034;-75
2021/12/27 10:22:23;;;;;;;16.52;9.30;;;;;;;5.42;94.94;99788.97;4986265;28;20375;-75
2021/12/27 10:24:53;;;;;;;17.95;9.27;;;;;;;5.40;95.37;99793.56;4983792;28;20026;-74
2021/12/27 10:27:19;;;;;;;17.67;9.55;;;;;;;5.35;95.44;99797.44;4982803;28;20113;-74
2021/12/27 10:29:45;;;;;;;21.85;9.45;;;;;;;5.32;95.20;99805.75;4976894;28;20121;-75
2021/12/27 10:32:18;;;;;;;16.02;9.27;;;;;;;5.34;95.38;99813.75;4984364;28;20501;-74
2021/12/27 10:34:46;;;;;;;17.52;10.48;;;;;;;5.40;95.41;99804.34;4984146;28;20061;-75
2021/12/27 10:37:14;;;;;;;18.48;10.20;;;;;;;5.47;95.33;99795.75;4982069;28;20054;-73
2021/12/27 10:39:43;;;;;;;17.63;9.68;;;;;;;5.56;95.79;99797.81;4974116;28;20045;-73
2021/12/27 10:42:09;;;;;;;17.80;9.13;;;;;;;5.65;96.00;99793.63;4980545;28;20027;-75
2021/12/27 10:44:36;;;;;;;22.25;10.35;;;;;;;5.76;95.63;99791.03;4985337;28;20026;-74
2021/12/27 10:47:03;;;;;;;18.98;11.35;;;;;;;5.87;95.92;99791.19;4987819;28;20096;-74
2021/12/27 10:49:47;;;;;;;17.00;10.43;;;;;;;5.95;94.96;99792.50;4980198;28;20029;-76
2021/12/27 10:52:12;;;;;;;15.38;8.95;;;;;;;5.98;94.77;99779.66;4979573;28;20038;-74
2021/12/27 10:54:38;;;;;;;17.67;9.77;;;;;;;6.01;94.67;99784.81;4986626;28;20026;-76
2021/12/27 10:57:04;;;;;;;17.75;9.45;;;;;;;6.08;94.66;99780.72;4985872;28;20045;-74
2021/12/27 10:59:30;;;;;;;15.05;9.30;;;;;;;6.18;94.97;99780.94;4985336;28;20034;-76
2021/12/27 11:01:55;;;;;;;19.23;10.45;;;;;;;6.31;94.79;99780.91;4987568;28;20419;-75
2021/12/27 11:04:21;;;;;;;20.98;9.52;;;;;;;6.38;94.41;99776.78;4983767;28;20133;-75
2021/12/27 11:06:48;;;;;;;15.40;9.48;;;;;;;6.43;93.41;99779.16;4984527;28;20113;-76
2021/12/27 11:09:14;;;;;;;17.42;9.15;;;;;;;6.39;93.64;99770.44;4986984;28;20510;-73
2021/12/27 11:11:40;;;;;;;14.05;8.65;;;;;;;6.41;93.28;99776.56;4986009;28;20054;-75
2021/12/27 11:14:06;;;;;;;16.38;10.18;;;;;;;6.44;93.76;99776.38;4986568;28;20069;-76
2021/12/27 11:16:32;;;;;;;17.50;10.45;;;;;;;6.45;93.83;99775.38;4986727;28;20037;-74
2021/12/27 11:18:58;;;;;;;14.60;8.77;;;;;;;6.50;93.80;99780.44;4984144;28;20038;-74
2021/12/27 11:21:36;;;;;;;15.02;9.25;;;;;;;6.53;93.75;99777.53;4986502;28;20029;-76
2021/12/27 11:24:03;;;;;;;15.20;9.57;;;;;;;6.56;93.28;99780.00;4985407;28;20026;-76
2021/12/27 11:26:31;;;;;;;13.82;8.60;;;;;;;6.58;93.64;99765.41;4986455;28;20030;-75